Time;durP1;ratioP1;P1;durP2;ratioP2;P2;SDS_P1;SDS_P2;PMS_P1;PMS_P2;Temp;Humidity;BMP_temperature;BMP_pressure;BME280_temperature;BME280_humidity;BME280_pressure;Samples;Min_cycle;Max_cycle;Signal;HPM_P1;HPM_P2
2022/07/03 00:01:59;;;;;;;11.10;5.78;;;21.20;57.90;;;;;;5053834;28;20017;-78
2022/07/03 00:04:25;;;;;;;13.93;5.82;;;21.20;59.20;;;;;;5036276;28;20032;-77
2022/07/03 00:06:54;;;;;;;10.02;5.95;;;21.20;59.50;;;;;;5035715;28;20013;-77
2022/07/03 00:09:20;;;;;;;9.73;6.28;;;21.20;60.10;;;;;;5035851;28;20529;-78
2022/07/03 00:11:46;;;;;;;9.38;6.10;;;21.10;60.00;;;;;;5053217;28;20356;-80
2022/07/03 00:14:12;;;;;;;14.30;6.05;;;21.10;60.80;;;;;;5053938;28;20028;-84
2022/07/03 00:16:38;;;;;;;13.77;6.00;;;21.10;62.00;;;;;;5053949;28;20067;-85
2022/07/03 00:19:03;;;;;;;11.07;6.00;;;21.00;61.70;;;;;;5035192;28;20028;-80
2022/07/03 00:21:41;;;;;;;9.88;5.88;;;21.00;61.60;;;;;;5053708;28;20469;-79
2022/07/03 00:24:39;;;;;;;14.13;6.10;;;21.00;61.90;;;;;;5053250;28;20066;-80
2022/07/03 00:27:08;;;;;;;13.65;6.53;;;20.90;62.00;;;;;;5035770;28;20393;-79
2022/07/03 00:29:37;;;;;;;11.57;6.68;;;20.90;62.40;;;;;;5051757;28;20044;-80
2022/07/03 00:32:06;;;;;;;10.93;6.18;;;20.80;62.40;;;;;;5036497;28;20474;-80
2022/07/03 00:34:33;;;;;;;9.45;6.03;;;20.70;62.20;;;;;;5056698;28;20029;-79
2022/07/03 00:37:01;;;;;;;8.50;5.55;;;20.80;61.60;;;;;;5052126;28;20139;-80
2022/07/03 00:39:27;;;;;;;7.50;6.07;;;20.70;61.50;;;;;;5052189;28;20028;-80
2022/07/03 00:42:03;;;;;;;9.30;5.68;;;20.70;61.20;;;;;;5051862;28;20022;-79
2022/07/03 00:44:32;;;;;;;10.03;5.63;;;20.70;60.50;;;;;;5052105;28;20017;-78
2022/07/03 00:47:02;;;;;;;8.40;6.10;;;20.60;60.80;;;;;;5053279;28;20040;-80
2022/07/03 00:49:31;;;;;;;8.60;5.80;;;20.60;60.80;;;;;;5053633;28;20033;-81
2022/07/03 00:51:58;;;;;;;11.18;6.28;;;20.60;61.10;;;;;;5055244;28;20027;-81
2022/07/03 00:54:25;;;;;;;9.52;5.93;;;20.60;61.30;;;;;;5065081;28;20032;-80
2022/07/03 00:56:54;;;;;;;10.80;6.03;;;20.50;61.40;;;;;;5038572;28;20079;-80
2022/07/03 00:59:20;;;;;;;13.70;6.05;;;20.50;61.70;;;;;;5053103;28;20050;-80
2022/07/03 01:01:52;;;;;;;10.45;5.97;;;20.50;61.80;;;;;;5052849;28;20486;-81
2022/07/03 01:04:18;;;;;;;8.05;5.35;;;20.50;62.10;;;;;;5052903;28;20132;-81
2022/07/03 01:07:05;;;;;;;10.13;5.63;;;20.50;62.50;;;;;;5048380;28;20513;-81
2022/07/03 01:09:59;;;;;;;10.02;6.00;;;20.50;62.90;;;;;;5052038;28;20040;-79
2022/07/03 01:12:49;;;;;;;6.63;5.65;;;20.40;63.10;;;;;;5045998;28;20037;-79
2022/07/03 01:15:33;;;;;;;9.85;5.90;;;20.30;63.50;;;;;;5054228;28;20045;-81
2022/07/03 01:18:11;;;;;;;8.02;5.53;;;20.30;64.00;;;;;;5054577;28;20033;-82
2022/07/03 01:20:41;;;;;;;13.45;5.78;;;20.30;64.40;;;;;;5053226;28;20043;-81
2022/07/03 01:23:24;;;;;;;7.63;5.88;;;20.20;64.50;;;;;;5052904;28;20028;-80
2022/07/03 01:25:52;;;;;;;7.82;5.18;;;20.20;64.80;;;;;;5064190;28;20074;-79
2022/07/03 01:28:22;;;;;;;6.43;5.28;;;20.20;64.80;;;;;;5053593;28;20047;-80
2022/07/03 01:30:53;;;;;;;7.47;5.32;;;20.20;65.20;;;;;;5053465;28;20437;-80
2022/07/03 01:33:26;;;;;;;8.75;5.18;;;20.20;65.20;;;;;;5052912;28;20029;-80
2022/07/03 01:35:52;;;;;;;11.52;5.75;;;20.20;65.20;;;;;;5052840;28;20053;-80
2022/07/03 01:38:20;;;;;;;10.38;5.95;;;20.20;65.30;;;;;;5055183;28;20478;-79
2022/07/03 01:40:49;;;;;;;9.70;5.75;;;20.20;65.30;;;;;;5038728;28;20016;-79
2022/07/03 01:43:15;;;;;;;15.52;5.75;;;20.20;65.40;;;;;;5063051;28;20064;-79
2022/07/03 01:45:43;;;;;;;9.87;5.93;;;20.20;65.50;;;;;;5053741;28;20394;-79
2022/07/03 01:48:11;;;;;;;8.07;5.35;;;20.30;65.80;;;;;;5054996;28;20383;-79
2022/07/03 01:50:39;;;;;;;7.95;5.70;;;20.30;65.80;;;;;;5051610;28;20117;-79
2022/07/03 01:53:08;;;;;;;7.20;5.03;;;20.40;65.80;;;;;;5056700;28;20032;-78
2022/07/03 01:55:37;;;;;;;10.07;6.15;;;20.40;65.80;;;;;;5055980;28;20025;-81
2022/07/03 01:58:02;;;;;;;7.13;5.13;;;20.50;65.90;;;;;;5055185;28;20041;-80
2022/07/03 02:00:29;;;;;;;10.15;5.55;;;20.50;65.90;;;;;;5060701;28;20040;-80
2022/07/03 02:02:57;;;;;;;8.55;5.55;;;20.60;66.10;;;;;;5058996;28;20025;-80
2022/07/03 02:05:43;;;;;;;8.35;5.47;;;20.70;66.20;;;;;;5041128;28;20025;-80
2022/07/03 02:08:28;;;;;;;8.45;5.32;;;20.70;66.30;;;;;;5055316;28;20021;-81
2022/07/03 02:11:09;;;;;;;10.55;5.25;;;20.70;66.40;;;;;;5055088;28;20033;-80
2022/07/03 02:13:59;;;;;;;11.20;5.32;;;20.70;66.10;;;;;;5045245;28;20024;-80
2022/07/03 02:16:26;;;;;;;9.95;5.35;;;20.80;66.10;;;;;;5018041;28;20037;-81
2022/07/03 02:19:04;;;;;;;8.70;5.55;;;20.80;66.10;;;;;;5055129;28;20072;-79
2022/07/03 02:21:31;;;;;;;8.25;5.30;;;20.90;66.00;;;;;;5035168;28;20461;-81
2022/07/03 02:24:22;;;;;;;6.97;5.87;;;21.00;66.10;;;;;;5052988;28;20020;-81
2022/07/03 02:26:55;;;;;;;6.13;4.63;;;21.00;65.70;;;;;;5052898;28;20048;-81
2022/07/03 02:29:28;;;;;;;5.75;5.07;;;21.10;65.30;;;;;;5051966;28;20577;-81
2022/07/03 02:32:11;;;;;;;8.00;5.20;;;21.10;64.90;;;;;;5050888;28;20039;-80
2022/07/03 02:34:42;;;;;;;8.18;5.15;;;21.20;64.50;;;;;;5052124;28;20108;-81
2022/07/03 02:37:17;;;;;;;7.90;4.97;;;21.20;64.50;;;;;;5052403;28;20378;-80
2022/07/03 02:39:51;;;;;;;10.43;5.13;;;21.30;64.00;;;;;;5040205;28;20021;-80
2022/07/03 02:42:29;;;;;;;7.75;5.55;;;21.30;63.70;;;;;;5051206;28;20108;-80
2022/07/03 02:45:00;;;;;;;7.05;5.38;;;21.40;63.50;;;;;;5051585;28;20079;-80
2022/07/03 02:47:57;;;;;;;7.63;5.57;;;21.40;63.40;;;;;;5052589;28;20094;-81
2022/07/03 02:50:27;;;;;;;12.57;5.82;;;21.40;63.40;;;;;;5051693;28;20037;-80
2022/07/03 02:53:06;;;;;;;9.75;5.95;;;21.50;63.30;;;;;;5051679;28;20025;-81
2022/07/03 02:55:46;;;;;;;6.22;5.25;;;21.50;63.40;;;;;;5033538;28;20025;-80
2022/07/03 02:58:33;;;;;;;7.65;5.88;;;21.50;63.10;;;;;;5020587;28;20489;-80
2022/07/03 03:01:06;;;;;;;7.90;5.28;;;21.60;63.10;;;;;;5051415;28;20504;-79
2022/07/03 03:03:33;;;;;;;8.95;5.72;;;21.70;63.10;;;;;;5032799;28;20401;-80
2022/07/03 03:06:15;;;;;;;13.32;5.80;;;21.70;62.90;;;;;;5051301;28;20021;-81
2022/07/03 03:09:02;;;;;;;9.25;5.43;;;21.80;62.60;;;;;;5040701;28;20060;-81
2022/07/03 03:11:44;;;;;;;;;;;21.90;62.00;;;;;;5051653;28;20115;-80
2022/07/03 03:14:13;;;;;;;6.68;5.35;;;22.00;61.70;;;;;;5051331;28;19904;-80
2022/07/03 03:16:48;;;;;;;8.48;5.75;;;22.10;61.50;;;;;;5053837;28;20082;-79
2022/07/03 03:19:14;;;;;;;10.02;5.65;;;22.30;61.20;;;;;;5063203;28;20105;-79
2022/07/03 03:21:56;;;;;;;9.50;5.45;;;22.40;60.70;;;;;;5056953;28;20424;-80
2022/07/03 03:24:23;;;;;;;8.40;5.82;;;22.50;60.70;;;;;;5054949;28;20050;-79
2022/07/03 03:26:49;;;;;;;5.55;4.90;;;22.50;60.30;;;;;;5054953;28;20017;-80
2022/07/03 03:29:14;;;;;;;13.80;6.68;;;22.50;60.40;;;;;;5036993;28;20083;-80
2022/07/03 03:31:40;;;;;;;8.95;5.90;;;22.50;60.50;;;;;;5054932;28;20364;-80
2022/07/03 03:34:07;;;;;;;8.80;5.35;;;22.50;60.60;;;;;;5054780;28;20029;-79
2022/07/03 03:36:33;;;;;;;11.13;6.00;;;22.50;60.40;;;;;;5059475;28;20025;-79
2022/07/03 03:38:59;;;;;;;8.48;6.03;;;22.60;60.30;;;;;;5067189;28;20017;-80
2022/07/03 03:41:25;;;;;;;11.48;6.53;;;22.70;60.20;;;;;;5070414;28;20029;-80
2022/07/03 03:43:51;;;;;;;6.53;5.93;;;22.70;60.20;;;;;;5063788;28;20377;-79
2022/07/03 03:46:17;;;;;;;7.93;5.88;;;22.70;60.00;;;;;;5054640;28;20025;-81
2022/07/03 03:48:43;;;;;;;7.07;5.97;;;22.70;60.00;;;;;;5036920;28;21935;-79
2022/07/03 03:51:09;;;;;;;7.43;6.60;;;22.70;60.20;;;;;;5063682;28;20032;-80
2022/07/03 03:53:35;;;;;;;9.88;6.30;;;22.70;60.40;;;;;;5054750;28;20040;-79
2022/07/03 03:56:05;;;;;;;10.00;5.82;;;22.70;61.10;;;;;;5054421;28;20091;-80
2022/07/03 03:58:32;;;;;;;7.32;6.07;;;22.80;61.30;;;;;;5036512;28;20049;-79
2022/07/03 04:01:00;;;;;;;7.72;6.20;;;22.90;60.60;;;;;;5054063;28;20025;-80
2022/07/03 04:03:26;;;;;;;10.20;6.65;;;22.90;60.70;;;;;;5054318;28;20483;-81
2022/07/03 04:05:52;;;;;;;8.07;6.20;;;23.00;60.80;;;;;;5035287;28;20500;-79
2022/07/03 04:08:19;;;;;;;8.40;6.70;;;23.00;60.30;;;;;;5054187;28;20047;-82
2022/07/03 04:10:46;;;;;;;9.77;5.78;;;23.00;60.40;;;;;;5054323;28;20098;-80
2022/07/03 04:13:12;;;;;;;7.85;7.05;;;23.10;60.60;;;;;;5054180;28;20025;-81
2022/07/03 04:15:37;;;;;;;8.13;5.95;;;23.10;60.90;;;;;;5054015;28;20104;-80
2022/07/03 04:18:03;;;;;;;8.68;6.93;;;23.20;60.60;;;;;;5053823;28;20040;-80
2022/07/03 04:20:30;;;;;;;9.23;6.72;;;23.30;60.10;;;;;;5053838;28;20060;-81
2022/07/03 04:22:57;;;;;;;8.75;6.75;;;23.30;60.00;;;;;;5053914;28;20013;-81
2022/07/03 04:25:22;;;;;;;8.20;6.68;;;23.30;60.00;;;;;;5063053;28;20076;-81
2022/07/03 04:27:48;;;;;;;9.77;6.70;;;23.30;60.20;;;;;;5053678;28;20049;-80
2022/07/03 04:30:14;;;;;;;10.45;6.85;;;23.40;60.10;;;;;;5053667;28;20079;-79
2022/07/03 04:32:40;;;;;;;10.85;6.40;;;23.30;60.20;;;;;;5053924;28;20074;-79
2022/07/03 04:35:06;;;;;;;8.75;6.40;;;23.30;60.40;;;;;;5053535;28;20033;-79
2022/07/03 04:37:32;;;;;;;10.10;6.57;;;23.40;60.60;;;;;;5054003;28;20021;-80
2022/07/03 04:39:58;;;;;;;10.13;6.00;;;23.50;60.80;;;;;;5052697;28;20151;-80
2022/07/03 04:42:23;;;;;;;8.00;7.10;;;23.60;60.80;;;;;;5062529;28;20036;-79
2022/07/03 04:44:49;;;;;;;7.63;6.82;;;23.70;60.50;;;;;;5053624;28;20021;-79
2022/07/03 04:47:15;;;;;;;10.55;8.02;;;23.70;60.00;;;;;;5056276;28;20021;-78
2022/07/03 04:49:44;;;;;;;8.07;7.15;;;23.60;60.00;;;;;;5037309;28;20040;-79
2022/07/03 04:52:11;;;;;;;8.77;6.93;;;23.60;60.20;;;;;;5055726;28;20036;-79
2022/07/03 04:54:37;;;;;;;9.13;7.15;;;23.60;60.40;;;;;;5037657;28;20578;-79
2022/07/03 04:57:03;;;;;;;10.90;7.18;;;23.70;60.40;;;;;;5056502;28;20025;-79
2022/07/03 04:59:29;;;;;;;9.63;7.40;;;23.70;60.40;;;;;;5037150;28;20063;-78
2022/07/03 05:01:55;;;;;;;8.82;7.18;;;23.80;60.30;;;;;;5055383;28;20029;-79
2022/07/03 05:04:21;;;;;;;11.38;7.57;;;23.80;60.20;;;;;;5054897;28;20570;-79
2022/07/03 05:06:46;;;;;;;10.15;8.38;;;23.90;60.20;;;;;;5056027;28;20470;-78
2022/07/03 05:09:12;;;;;;;9.70;7.47;;;23.90;60.20;;;;;;5055502;28;20037;-79
2022/07/03 05:11:38;;;;;;;8.27;7.35;;;24.00;60.40;;;;;;5055156;28;20021;-79
2022/07/03 05:14:05;;;;;;;14.45;7.82;;;24.10;60.10;;;;;;5055443;28;20032;-79
2022/07/03 05:16:31;;;;;;;8.43;7.57;;;24.70;59.60;;;;;;5055783;28;20391;-79
2022/07/03 05:18:57;;;;;;;32.17;10.77;;;25.60;58.10;;;;;;5055261;28;20100;-81
2022/07/03 05:21:23;;;;;;;8.25;7.35;;;26.40;56.50;;;;;;5038213;28;20029;-79
2022/07/03 05:23:49;;;;;;;9.27;7.18;;;27.50;54.00;;;;;;5058181;28;20469;-82
2022/07/03 05:26:15;;;;;;;7.93;7.22;;;28.50;51.60;;;;;;5037899;28;20064;-82
2022/07/03 05:28:41;;;;;;;8.33;7.50;;;29.40;49.90;;;;;;5054138;28;20108;-81
2022/07/03 05:31:07;;;;;;;8.00;6.57;;;30.00;48.80;;;;;;5059276;28;20041;-80
2022/07/03 05:33:33;;;;;;;9.67;7.37;;;30.80;47.80;;;;;;5058225;28;20036;-79
2022/07/03 05:35:59;;;;;;;9.50;7.20;;;31.30;46.70;;;;;;5056788;28;20025;-81
2022/07/03 05:41:10;;;;;;;9.20;6.32;;;32.60;44.70;;;;;;5054874;28;20036;-80
2022/07/03 05:43:36;;;;;;;9.17;6.37;;;33.40;43.60;;;;;;5054589;28;20085;-80
2022/07/03 05:46:03;;;;;;;8.27;6.77;;;34.10;42.40;;;;;;5036979;28;20060;-82
2022/07/03 05:48:29;;;;;;;8.40;6.97;;;34.70;42.00;;;;;;5055965;28;20407;-81
2022/07/03 05:50:55;;;;;;;11.70;7.20;;;35.40;40.80;;;;;;5054637;28;20029;-80
2022/07/03 05:53:21;;;;;;;8.55;7.07;;;36.00;40.30;;;;;;5037223;28;20033;-81
2022/07/03 05:55:47;;;;;;;7.87;6.53;;;36.50;39.20;;;;;;5054243;28;20035;-81
2022/07/03 05:58:13;;;;;;;7.90;6.67;;;37.00;38.70;;;;;;5054022;28;20041;-81
2022/07/03 06:00:38;;;;;;;7.33;6.43;;;37.40;37.90;;;;;;5054324;28;20032;-82
2022/07/03 06:03:04;;;;;;;6.60;6.00;;;37.80;37.30;;;;;;5059706;28;20048;-80
2022/07/03 06:05:32;;;;;;;9.80;6.83;;;38.00;37.60;;;;;;5054084;28;20021;-81
2022/07/03 06:07:58;;;;;;;8.13;6.65;;;38.20;36.70;;;;;;5054597;28;20611;-80
2022/07/03 06:10:25;;;;;;;9.07;6.45;;;37.60;36.80;;;;;;5031702;28;20040;-79
2022/07/03 06:12:51;;;;;;;8.48;6.95;;;;;;;;;;5036721;28;20440;-80
2022/07/03 06:15:17;;;;;;;10.35;5.43;;;38.20;36.30;;;;;;5033573;28;20476;-79
2022/07/03 06:17:46;;;;;;;8.23;6.72;;;39.10;35.90;;;;;;5047904;28;20032;-80
2022/07/03 06:20:13;;;;;;;11.25;7.07;;;;;;;;;;5037915;28;20033;-82
2022/07/03 06:22:39;;;;;;;8.50;5.95;;;40.00;35.60;;;;;;5037760;28;20079;-81
2022/07/03 06:25:06;;;;;;;7.80;6.68;;;41.30;34.20;;;;;;5057152;28;20048;-79
2022/07/03 06:27:31;;;;;;;10.05;5.60;;;41.80;33.50;;;;;;5039289;28;20029;-79
2022/07/03 06:30:02;;;;;;;9.55;6.07;;;41.60;32.70;;;;;;5066650;28;20078;-82
2022/07/03 06:32:28;;;;;;;6.63;6.03;;;41.10;33.30;;;;;;5059426;28;20025;-80
2022/07/03 06:34:54;;;;;;;12.15;6.63;;;41.70;32.50;;;;;;5054941;28;20040;-80
2022/07/03 06:37:21;;;;;;;;;;;41.80;32.90;;;;;;5036233;28;20391;-78
2022/07/03 06:39:47;;;;;;;10.65;6.45;;;43.20;33.20;;;;;;5038132;28;19908;-80
2022/07/03 06:42:12;;;;;;;;;;;43.70;31.70;;;;;;5039934;28;20021;-80
2022/07/03 06:44:38;;;;;;;10.05;6.20;;;43.70;31.80;;;;;;5046318;28;19911;-79
2022/07/03 06:47:04;;;;;;;;;;;42.90;31.60;;;;;;5034280;28;20478;-79
2022/07/03 06:49:34;;;;;;;9.18;5.57;;;43.30;32.80;;;;;;5052362;28;19916;-79
2022/07/03 06:52:00;;;;;;;7.78;6.35;;;43.40;31.00;;;;;;5058345;28;20080;-79
2022/07/03 06:54:25;;;;;;;;;;;43.70;30.70;;;;;;5058404;28;20044;-79
2022/07/03 06:56:51;;;;;;;7.05;5.57;;;44.20;31.80;;;;;;5058999;28;20354;-79
2022/07/03 06:59:17;;;;;;;;;;;44.50;30.20;;;;;;5047159;28;20160;-80
2022/07/03 07:01:43;;;;;;;5.53;4.72;;;45.00;30.80;;;;;;5039269;28;19984;-77
2022/07/03 07:04:09;;;;;;;5.40;4.63;;;45.20;29.60;;;;;;5057165;28;20021;-78
2022/07/03 07:06:34;;;;;;;;;;;45.20;29.30;;;;;;5058332;28;20025;-78
2022/07/03 07:09:00;;;;;;;6.78;5.07;;;44.80;29.90;;;;;;5039399;28;19909;-78
2022/07/03 07:11:26;;;;;;;6.63;5.47;;;44.90;29.70;;;;;;5054938;28;20028;-81
2022/07/03 07:13:52;;;;;;;9.82;5.22;;;45.40;29.40;;;;;;5043156;28;20025;-83
2022/07/03 07:16:18;;;;;;;7.20;5.15;;;45.60;29.30;;;;;;5043788;28;20040;-79
2022/07/03 07:18:44;;;;;;;10.25;4.90;;;45.70;28.90;;;;;;5028117;28;20032;-79
2022/07/03 07:21:10;;;;;;;8.57;4.70;;;46.30;28.70;;;;;;5059066;28;20031;-80
2022/07/03 07:23:36;;;;;;;6.30;4.78;;;47.00;28.60;;;;;;5058162;28;20017;-80
2022/07/03 07:26:03;;;;;;;7.20;5.60;;;46.90;28.90;;;;;;5045118;28;20025;-80
2022/07/03 07:28:30;;;;;;;12.07;5.07;;;;;;;;;;5062525;28;20029;-80
2022/07/03 07:30:57;;;;;;;6.32;4.85;;;45.70;42.30;;;;;;5062279;28;20110;-79
2022/07/03 07:33:23;;;;;;;6.25;4.78;;;45.90;29.40;;;;;;5056462;28;20024;-79
2022/07/03 07:35:50;;;;;;;5.57;4.57;;;45.30;28.70;;;;;;5057649;28;20470;-77
2022/07/03 07:38:17;;;;;;;7.00;4.70;;;45.10;28.70;;;;;;5038763;28;20391;-81
2022/07/03 07:40:42;;;;;;;6.07;4.60;;;44.50;29.20;;;;;;5055759;28;20048;-80
2022/07/03 07:43:08;;;;;;;9.73;4.55;;;45.30;29.10;;;;;;5049129;28;20017;-81
2022/07/03 07:45:35;;;;;;;7.35;4.57;;;46.10;28.40;;;;;;5045409;28;20059;-82
2022/07/03 07:48:01;;;;;;;9.55;5.10;;;;;;;;;;5055851;28;20425;-81
2022/07/03 07:50:28;;;;;;;7.68;5.43;;;47.30;27.40;;;;;;5042313;28;20441;-80
2022/07/03 07:52:53;;;;;;;7.38;4.30;;;47.00;27.20;;;;;;5056907;28;20037;-79
2022/07/03 07:55:20;;;;;;;5.43;3.72;;;45.80;27.70;;;;;;5058375;28;20032;-83
2022/07/03 07:57:48;;;;;;;6.60;5.55;;;44.60;28.00;;;;;;5037602;28;20055;-82
2022/07/03 08:00:16;;;;;;;7.43;4.13;;;43.60;28.80;;;;;;5059896;28;20477;-82
2022/07/03 08:05:36;;;;;;;;;;;44.10;28.90;;;;;;5056392;28;20139;-82
2022/07/03 08:08:09;;;;;;;5.60;4.68;;;44.60;28.80;;;;;;5056598;28;19905;-82
2022/07/03 08:10:42;;;;;;;7.10;4.82;;;44.90;28.20;;;;;;5056874;28;20028;-82
2022/07/03 08:13:08;;;;;;;6.45;4.95;;;45.50;28.30;;;;;;5054557;28;20083;-81
2022/07/03 08:15:35;;;;;;;5.72;4.85;;;45.50;28.30;;;;;;5055663;28;20025;-83
2022/07/03 08:18:01;;;;;;;8.73;5.00;;;45.50;28.40;;;;;;5038196;28;20151;-80
2022/07/03 08:20:28;;;;;;;6.90;4.78;;;45.50;28.20;;;;;;5055321;28;20025;-80
2022/07/03 08:22:54;;;;;;;6.93;4.82;;;46.10;28.20;;;;;;5055072;28;20025;-82
2022/07/03 08:25:20;;;;;;;6.47;5.13;;;46.60;27.70;;;;;;5039606;28;20025;-82
2022/07/03 08:27:46;;;;;;;6.78;4.78;;;46.10;27.70;;;;;;5055678;28;20091;-82
2022/07/03 08:30:14;;;;;;;6.90;4.75;;;46.20;27.70;;;;;;5037605;28;20036;-82
2022/07/03 08:32:40;;;;;;;6.70;4.90;;;45.20;27.90;;;;;;5023225;28;20491;-84
2022/07/03 08:35:06;;;;;;;11.40;7.82;;;44.40;28.60;;;;;;5038302;28;20029;-82
2022/07/03 08:37:32;;;;;;;7.00;4.68;;;45.00;28.40;;;;;;5056309;28;20327;-82
2022/07/03 08:39:58;;;;;;;11.55;6.70;;;46.20;28.10;;;;;;5055562;28;20025;-82
2022/07/03 08:42:26;;;;;;;6.53;4.22;;;46.90;28.00;;;;;;5056892;28;20482;-83
2022/07/03 08:44:54;;;;;;;6.50;4.22;;;46.60;27.20;;;;;;5056404;28;20052;-81
2022/07/03 08:47:21;;;;;;;7.25;4.78;;;45.60;27.80;;;;;;5057541;28;20036;-82
2022/07/03 08:49:48;;;;;;;6.18;4.72;;;45.50;27.90;;;;;;5057374;28;20421;-82
2022/07/03 08:52:14;;;;;;;5.30;4.80;;;45.50;27.70;;;;;;5054948;28;20084;-82
2022/07/03 08:54:40;;;;;;;7.60;4.57;;;45.20;28.20;;;;;;5037082;28;20020;-82
2022/07/03 08:57:07;;;;;;;6.70;4.88;;;45.10;28.00;;;;;;5037623;28;20413;-83
2022/07/03 08:59:37;;;;;;;5.10;4.45;;;44.40;27.90;;;;;;5037482;28;20083;-83
2022/07/03 09:02:04;;;;;;;5.57;4.82;;;44.30;28.80;;;;;;5056325;28;20017;-82
2022/07/03 09:04:31;;;;;;;7.63;4.70;;;43.60;28.60;;;;;;5038539;28;20029;-82
2022/07/03 09:06:59;;;;;;;6.15;5.55;;;42.90;29.00;;;;;;5038452;28;20021;-83
2022/07/03 09:09:25;;;;;;;6.40;5.15;;;42.90;29.20;;;;;;5057138;28;20076;-81
2022/07/03 09:11:52;;;;;;;5.75;4.80;;;43.80;28.80;;;;;;5062976;28;20021;-80
2022/07/03 09:14:18;;;;;;;6.38;4.40;;;44.20;28.20;;;;;;5069060;28;20017;-81
2022/07/03 09:16:44;;;;;;;5.63;5.13;;;42.90;28.50;;;;;;5060732;28;20021;-81
2022/07/03 09:19:10;;;;;;;;;;;41.10;29.70;;;;;;5041136;28;20029;-81
2022/07/03 09:21:38;;;;;;;7.18;4.95;;;40.90;30.40;;;;;;5057089;28;19905;-82
2022/07/03 09:24:06;;;;;;;5.00;4.43;;;41.50;29.70;;;;;;5055504;28;20036;-83
2022/07/03 09:26:32;;;;;;;6.55;4.60;;;42.30;29.40;;;;;;5056373;28;20024;-81
2022/07/03 09:28:58;;;;;;;6.82;4.85;;;43.10;29.00;;;;;;5056239;28;20016;-83
2022/07/03 09:31:29;;;;;;;6.45;4.60;;;43.20;28.60;;;;;;5036107;28;20482;-82
2022/07/03 09:34:07;;;;;;;6.30;4.55;;;42.80;28.80;;;;;;5054630;28;20152;-83
2022/07/03 09:36:45;;;;;;;5.28;4.80;;;43.20;28.90;;;;;;5055141;28;20025;-83
2022/07/03 09:39:18;;;;;;;5.65;4.80;;;43.10;28.50;;;;;;5036881;28;20032;-81
2022/07/03 09:42:02;;;;;;;6.93;6.30;;;41.00;29.40;;;;;;5037204;28;20025;-82
2022/07/03 09:44:36;;;;;;;5.85;5.22;;;39.40;30.90;;;;;;5055747;28;20025;-84
2022/07/03 09:47:16;;;;;;;6.90;5.18;;;39.70;31.30;;;;;;5055243;28;20604;-83
2022/07/03 09:49:50;;;;;;;4.50;4.10;;;40.70;30.50;;;;;;5055870;28;20029;-81
2022/07/03 09:52:39;;;;;;;8.35;7.38;;;41.60;29.70;;;;;;5056597;28;20024;-83
2022/07/03 09:55:11;;;;;;;4.63;4.22;;;41.50;29.80;;;;;;5026764;28;20189;-84
2022/07/03 09:57:39;;;;;;;6.95;5.18;;;41.80;30.00;;;;;;5056812;28;20040;-82
2022/07/03 10:00:21;;;;;;;5.53;4.78;;;42.60;29.40;;;;;;5054369;28;20048;-83
2022/07/03 10:02:59;;;;;;;6.25;4.32;;;43.00;29.20;;;;;;5056895;28;20039;-82
2022/07/03 10:05:30;;;;;;;7.63;5.07;;;42.40;29.20;;;;;;5055810;28;20012;-83
2022/07/03 10:08:02;;;;;;;4.97;4.47;;;42.00;29.40;;;;;;5055469;28;20105;-82
2022/07/03 10:10:30;;;;;;;4.35;3.80;;;42.20;29.60;;;;;;5054419;28;20029;-83
2022/07/03 10:12:57;;;;;;;5.38;4.30;;;42.80;28.70;;;;;;5037431;28;20379;-84
2022/07/03 10:15:24;;;;;;;6.10;4.40;;;42.40;28.10;;;;;;5037077;28;20028;-81
2022/07/03 10:17:53;;;;;;;4.93;4.35;;;41.40;28.80;;;;;;5055866;28;20029;-82
2022/07/03 10:20:33;;;;;;;5.63;3.78;;;41.00;29.40;;;;;;5012943;28;20030;-82
2022/07/03 10:22:59;;;;;;;4.53;4.13;;;41.40;29.20;;;;;;5013754;28;20030;-83
2022/07/03 10:25:25;;;;;;;6.47;3.88;;;42.30;29.20;;;;;;5018569;28;20117;-83
2022/07/03 10:27:51;;;;;;;;;;;42.70;27.80;;;;;;5019791;28;20065;-85
2022/07/03 10:30:21;;;;;;;5.78;4.05;;;42.20;28.40;;;;;;5003383;28;19920;-83
2022/07/03 10:32:50;;;;;;;6.75;4.03;;;42.00;28.20;;;;;;5004965;28;20080;-84
2022/07/03 10:35:37;;;;;;;5.45;4.95;;;38.60;29.70;;;;;;5024153;28;20052;-84
2022/07/03 10:38:02;;;;;;;7.93;4.53;;;38.30;29.70;;;;;;5021200;28;20037;-83
2022/07/03 10:46:29;;;;;;;5.82;5.30;;;34.30;33.70;;;;;;5019915;28;20064;-83
2022/07/03 10:49:07;;;;;;;5.32;4.82;;;33.30;35.10;;;;;;5020331;28;20383;-81
2022/07/03 10:51:54;;;;;;;7.75;4.70;;;32.70;35.20;;;;;;5045163;28;20044;-82
2022/07/03 10:54:33;;;;;;;5.53;4.47;;;32.20;35.50;;;;;;5043879;28;20021;-85
2022/07/03 10:57:01;;;;;;;7.15;5.13;;;31.60;36.20;;;;;;5044018;28;20094;-83
2022/07/03 10:59:43;;;;;;;10.70;5.63;;;31.30;38.00;;;;;;5065287;28;20058;-83
2022/07/03 11:02:36;;;;;;;6.97;6.00;;;31.20;38.50;;;;;;5065387;28;20049;-83
2022/07/03 11:05:03;;;;;;;7.55;5.55;;;31.00;39.00;;;;;;5050882;28;20020;-82
2022/07/03 11:07:32;;;;;;;5.88;5.30;;;31.00;38.80;;;;;;5064184;28;20025;-83
2022/07/03 11:10:10;;;;;;;5.47;4.68;;;30.90;38.50;;;;;;5045495;28;20044;-81
2022/07/03 11:12:56;;;;;;;4.60;4.20;;;30.70;38.20;;;;;;5062259;28;20032;-83
2022/07/03 11:15:31;;;;;;;6.90;4.67;;;30.60;36.60;;;;;;5031385;28;20060;-83
2022/07/03 11:18:19;;;;;;;7.90;5.55;;;30.50;37.30;;;;;;5061354;28;20082;-84
2022/07/03 11:20:45;;;;;;;8.32;5.88;;;30.50;38.70;;;;;;5043554;28;20096;-83
2022/07/03 11:23:11;;;;;;;7.43;5.10;;;30.30;39.90;;;;;;5060744;28;20033;-83
2022/07/03 11:25:44;;;;;;;4.80;4.35;;;30.20;39.80;;;;;;5044423;28;20159;-84
2022/07/03 11:28:31;;;;;;;8.32;5.30;;;30.20;38.70;;;;;;5062072;28;20378;-84
2022/07/03 11:31:18;;;;;;;6.00;4.72;;;30.20;38.60;;;;;;5060997;28;20037;-83
2022/07/03 11:34:00;;;;;;;8.65;5.68;;;30.10;39.40;;;;;;5061456;28;20085;-84
2022/07/03 11:36:33;;;;;;;8.60;5.60;;;30.00;40.30;;;;;;5058241;28;20098;-82
2022/07/03 11:38:59;;;;;;;6.07;5.55;;;30.00;40.70;;;;;;5036967;28;20018;-82
2022/07/03 11:41:27;;;;;;;7.13;5.93;;;30.00;40.70;;;;;;5051374;28;20025;-84
2022/07/03 11:44:03;;;;;;;6.72;5.97;;;30.00;40.70;;;;;;5041737;28;20028;-84
2022/07/03 11:46:32;;;;;;;5.78;5.25;;;30.00;40.20;;;;;;5041935;28;20471;-84
2022/07/03 11:49:08;;;;;;;7.85;6.38;;;30.00;40.00;;;;;;5062390;28;20383;-83
2022/07/03 11:51:35;;;;;;;6.82;5.00;;;30.00;40.60;;;;;;5061085;28;20040;-83
2022/07/03 11:54:02;;;;;;;5.93;5.05;;;30.00;40.80;;;;;;5065555;28;20052;-82
2022/07/03 11:56:28;;;;;;;5.68;4.28;;;30.00;41.00;;;;;;5046415;28;20039;-82
2022/07/03 11:58:56;;;;;;;7.72;5.13;;;30.00;40.30;;;;;;5040200;28;20120;-81
2022/07/03 12:01:22;;;;;;;5.45;4.78;;;29.90;39.60;;;;;;5037833;28;20061;-83
2022/07/03 12:03:48;;;;;;;7.63;4.70;;;29.90;39.40;;;;;;5037156;28;20505;-83
2022/07/03 12:06:15;;;;;;;6.25;4.65;;;30.00;38.60;;;;;;5037348;28;20025;-83
2022/07/03 12:08:45;;;;;;;6.38;5.15;;;30.00;39.10;;;;;;5037698;28;20053;-83
2022/07/03 12:11:12;;;;;;;7.88;5.78;;;29.90;40.30;;;;;;5037352;28;20391;-83
2022/07/03 12:13:39;;;;;;;7.88;5.43;;;29.90;40.50;;;;;;5038234;28;20048;-84
2022/07/03 12:16:11;;;;;;;9.73;5.63;;;29.90;40.70;;;;;;5038076;28;20029;-83
2022/07/03 12:18:42;;;;;;;5.47;4.60;;;30.00;40.70;;;;;;5036588;28;20434;-82
2022/07/03 12:21:09;;;;;;;8.27;5.10;;;29.90;39.90;;;;;;5036861;28;20030;-83
2022/07/03 12:23:51;;;;;;;8.13;5.23;;;29.90;40.10;;;;;;5037777;28;20047;-84
2022/07/03 12:26:34;;;;;;;5.18;4.18;;;29.80;39.80;;;;;;5036948;28;20060;-84
2022/07/03 12:29:09;;;;;;;4.40;3.95;;;29.70;39.20;;;;;;5026341;28;20104;-83
2022/07/03 12:31:38;;;;;;;5.55;4.40;;;29.70;38.90;;;;;;5037867;28;20029;-82
2022/07/03 12:34:04;;;;;;;6.82;4.38;;;29.70;38.50;;;;;;5036358;28;20018;-83
2022/07/03 12:36:30;;;;;;;8.90;4.72;;;29.70;39.20;;;;;;5036446;28;20441;-81
2022/07/03 12:38:56;;;;;;;7.13;4.95;;;29.70;39.60;;;;;;5038913;28;20030;-84
2022/07/03 12:41:23;;;;;;;5.10;4.40;;;29.70;40.40;;;;;;5036001;28;20017;-83
2022/07/03 12:43:51;;;;;;;6.20;4.28;;;29.70;40.00;;;;;;5036496;28;20095;-83
2022/07/03 12:46:26;;;;;;;8.77;4.97;;;29.60;39.90;;;;;;5037416;28;20026;-83
2022/07/03 12:48:57;;;;;;;5.00;4.55;;;29.60;40.10;;;;;;5034759;28;20100;-84
2022/07/03 12:51:45;;;;;;;6.30;4.50;;;29.70;39.90;;;;;;5035562;28;20041;-82
2022/07/03 12:54:30;;;;;;;7.10;4.35;;;29.70;39.30;;;;;;5037953;28;20048;-85
2022/07/03 13:00:05;;;;;;;5.50;4.10;;;29.70;39.30;;;;;;5042387;28;20056;-84
2022/07/03 13:02:35;;;;;;;4.85;4.35;;;29.70;39.00;;;;;;5043078;28;20052;-84
2022/07/03 13:05:13;;;;;;;5.07;4.07;;;29.70;38.90;;;;;;5055509;28;20107;-82
2022/07/03 13:07:43;;;;;;;6.05;4.10;;;29.70;39.20;;;;;;5056227;28;20021;-84
2022/07/03 13:10:09;;;;;;;7.07;3.80;;;29.80;38.40;;;;;;5039526;28;20132;-83
2022/07/03 13:12:45;;;;;;;9.52;4.03;;;29.80;37.80;;;;;;5056128;28;20057;-81
2022/07/03 13:15:12;;;;;;;7.20;3.65;;;29.80;38.20;;;;;;5055327;28;20028;-85
2022/07/03 13:17:56;;;;;;;4.22;3.83;;;29.80;37.80;;;;;;5055524;28;20057;-83